createdAt,value
2023-10-21T00:00:11.554Z,81.27
2023-10-21T00:01:11.483Z,81.37
2023-10-21T00:02:11.524Z,81.07
2023-10-21T00:03:11.555Z,80.87
2023-10-21T00:04:11.563Z,80.87
2023-10-21T00:05:11.463Z,80.87
2023-10-21T00:06:11.449Z,81.17
2023-10-21T00:07:11.574Z,81.17
2023-10-21T00:08:11.481Z,81.07
2023-10-21T00:09:11.458Z,80.87
2023-10-21T00:10:11.399Z,81.27
2023-10-21T00:11:11.401Z,81.68
2023-10-21T00:12:11.370Z,81.68
2023-10-21T00:13:11.440Z,81.57
2023-10-21T00:14:11.320Z,81.68
2023-10-21T00:15:11.460Z,81.57
2023-10-21T00:16:11.302Z,81.78
2023-10-21T00:17:11.345Z,81.57
2023-10-21T00:18:11.397Z,81.37
2023-10-21T00:19:11.311Z,81.68
2023-10-21T00:20:11.395Z,81.48
2023-10-21T00:21:11.328Z,81.48
2023-10-21T00:22:11.255Z,81.37
2023-10-21T00:23:11.243Z,81.27
2023-10-21T00:24:11.218Z,81.57
2023-10-21T00:25:11.226Z,81.57
2023-10-21T00:26:11.946Z,81.68
2023-10-21T00:27:11.261Z,81.78
2023-10-21T00:28:11.152Z,81.68
2023-10-21T00:29:11.158Z,81.57
2023-10-21T00:30:11.124Z,81.57
2023-10-21T00:31:11.154Z,81.17
2023-10-21T00:32:11.123Z,81.17
2023-10-21T00:33:11.198Z,81.37
2023-10-21T00:34:11.075Z,81.27
2023-10-21T00:35:11.104Z,81.48
2023-10-21T00:36:11.099Z,81.37
2023-10-21T00:37:11.058Z,81.48
2023-10-21T00:38:10.992Z,81.27
2023-10-21T00:39:11.078Z,81.17
2023-10-21T00:40:11.003Z,81.48
2023-10-21T00:41:11.029Z,81.27
2023-10-21T00:42:11.037Z,81.07
2023-10-21T00:43:10.980Z,81.17
2023-10-21T00:44:10.930Z,81.48
2023-10-21T00:45:11.139Z,81.78
2023-10-21T00:46:11.021Z,81.98
2023-10-21T00:47:10.905Z,81.92
2023-10-21T00:48:10.914Z,81.98
2023-10-21T00:49:10.904Z,82.22
2023-10-21T00:50:10.882Z,82.62
2023-10-21T00:51:10.992Z,82.83
2023-10-21T00:52:10.808Z,83.03
2023-10-21T00:53:10.855Z,83.44
2023-10-21T00:54:10.889Z,83.54
2023-10-21T00:55:10.826Z,83.74
2023-10-21T00:56:10.810Z,83.84
2023-10-21T00:57:10.879Z,83.84
2023-10-21T00:58:10.733Z,84.04
2023-10-21T00:59:10.761Z,84.14
2023-10-21T01:00:10.741Z,84.14
2023-10-21T01:01:10.786Z,84.14
2023-10-21T01:02:10.721Z,84.25
2023-10-21T01:03:10.754Z,84.34
2023-10-21T01:04:10.814Z,84.34
2023-10-21T01:05:10.744Z,84.55
2023-10-21T01:06:10.682Z,84.65
2023-10-21T01:07:10.663Z,84.59
2023-10-21T01:08:10.612Z,84.59
2023-10-21T01:09:10.676Z,84.55
2023-10-21T01:10:10.617Z,84.65
2023-10-21T01:11:10.614Z,84.79
2023-10-21T01:12:10.598Z,84.99
2023-10-21T01:13:10.607Z,85.10
2023-10-21T01:14:10.650Z,85.19
2023-10-21T01:15:10.628Z,85.30
2023-10-21T01:16:10.553Z,85.10
2023-10-21T01:17:10.559Z,85.30
2023-10-21T01:18:10.591Z,85.39
2023-10-21T01:19:10.491Z,85.39
2023-10-21T01:20:10.461Z,85.50
2023-10-21T01:21:10.494Z,85.50
2023-10-21T01:22:10.449Z,85.60
2023-10-21T01:23:10.471Z,85.50
2023-10-21T01:24:10.470Z,85.60
2023-10-21T01:25:10.440Z,85.50
2023-10-21T01:26:10.392Z,85.60
2023-10-21T01:27:10.453Z,85.80
2023-10-21T01:28:10.359Z,85.70
2023-10-21T01:29:10.409Z,85.80
2023-10-21T01:30:10.376Z,85.70
2023-10-21T01:31:10.367Z,85.70
2023-10-21T01:32:10.326Z,85.50
2023-10-21T01:33:10.419Z,85.80
2023-10-21T01:34:10.431Z,85.80
2023-10-21T01:35:10.306Z,85.60
2023-10-21T01:36:10.312Z,85.60
2023-10-21T01:37:10.274Z,85.50
2023-10-21T01:38:10.237Z,85.50
2023-10-21T01:39:10.298Z,85.50
2023-10-21T01:40:10.216Z,85.60
2023-10-21T01:41:10.205Z,85.60
2023-10-21T01:42:10.213Z,85.60
2023-10-21T01:43:10.228Z,85.30
2023-10-21T01:44:10.149Z,85.30
2023-10-21T01:45:10.238Z,85.39
2023-10-21T01:46:10.185Z,85.39
2023-10-21T01:47:10.145Z,85.39
2023-10-21T01:48:10.439Z,85.39
2023-10-21T01:49:10.105Z,85.50
2023-10-21T01:50:10.091Z,85.50
2023-10-21T01:51:10.103Z,85.39
2023-10-21T01:52:10.087Z,85.70
2023-10-21T01:53:10.022Z,85.80
2023-10-21T01:54:10.135Z,86.00
2023-10-21T01:55:10.064Z,86.21
2023-10-21T01:56:10.026Z,86.45
2023-10-21T01:57:10.027Z,86.55
2023-10-21T01:58:09.982Z,86.76
2023-10-21T01:59:09.954Z,86.76
2023-10-21T02:00:10.042Z,87.05
2023-10-21T02:01:09.949Z,87.46
2023-10-21T02:02:10.053Z,87.97
2023-10-21T02:03:10.022Z,88.27
2023-10-21T02:04:10.095Z,88.68
2023-10-21T02:05:09.901Z,89.08
2023-10-21T02:06:09.932Z,89.53
2023-10-21T02:07:09.867Z,90.24
2023-10-21T02:08:09.862Z,90.54
2023-10-21T02:09:09.856Z,90.75
2023-10-21T02:10:09.851Z,90.95
2023-10-21T02:11:09.788Z,91.05
2023-10-21T02:12:09.834Z,91.19
2023-10-21T02:13:09.791Z,91.09
2023-10-21T02:14:09.766Z,91.30
2023-10-21T02:15:09.761Z,91.39
2023-10-21T02:16:09.774Z,91.30
2023-10-21T02:17:09.712Z,91.39
2023-10-21T02:18:10.809Z,91.39
2023-10-21T02:19:09.679Z,91.50
2023-10-21T02:20:09.691Z,91.50
2023-10-21T02:21:09.679Z,91.60
2023-10-21T02:22:09.707Z,91.60
2023-10-21T02:23:09.671Z,91.70
2023-10-21T02:24:09.686Z,91.70
2023-10-21T02:25:13.742Z,91.60
2023-10-21T02:26:09.634Z,91.60
2023-10-21T02:27:09.658Z,91.60
2023-10-21T02:28:09.571Z,91.39
2023-10-21T02:29:09.541Z,91.30
2023-10-21T02:30:09.650Z,91.30
2023-10-21T02:31:09.591Z,91.19
2023-10-21T02:32:09.598Z,91.09
2023-10-21T02:33:09.572Z,90.89
2023-10-21T02:34:09.510Z,90.79
2023-10-21T02:35:09.483Z,90.69
2023-10-21T02:36:09.550Z,90.28
2023-10-21T02:37:09.455Z,90.18
2023-10-21T02:38:09.488Z,90.18
2023-10-21T02:39:09.634Z,89.83
2023-10-21T02:40:09.433Z,89.53
2023-10-21T02:41:09.432Z,89.32
2023-10-21T02:42:09.431Z,89.32
2023-10-21T02:43:09.359Z,89.23
2023-10-21T02:44:09.387Z,89.02
2023-10-21T02:45:09.345Z,88.92
2023-10-21T02:46:09.397Z,88.72
2023-10-21T02:47:09.314Z,88.72
2023-10-21T02:48:09.377Z,88.51
2023-10-21T02:49:09.291Z,88.21
2023-10-21T02:50:09.327Z,88.21
2023-10-21T02:51:09.282Z,88.11
2023-10-21T02:52:09.308Z,88.01
2023-10-21T02:53:09.241Z,88.01
2023-10-21T02:54:09.335Z,87.81
2023-10-21T02:55:09.222Z,87.81
2023-10-21T02:56:09.220Z,87.81
2023-10-21T02:57:09.244Z,87.81
2023-10-21T02:58:09.211Z,87.71
2023-10-21T02:59:09.154Z,87.71
2023-10-21T03:00:09.213Z,87.60
2023-10-21T03:01:09.152Z,87.71
2023-10-21T03:02:09.257Z,87.60
2023-10-21T03:03:09.291Z,87.60
2023-10-21T03:04:09.303Z,87.60
2023-10-21T03:05:09.149Z,87.51
2023-10-21T03:06:09.132Z,87.51
2023-10-21T03:07:09.074Z,87.40
2023-10-21T03:08:09.096Z,87.40
2023-10-21T03:09:09.055Z,87.51
2023-10-21T03:10:09.064Z,87.40
2023-10-21T03:11:09.019Z,87.40
2023-10-21T03:12:09.145Z,87.51
2023-10-21T03:13:09.003Z,87.51
2023-10-21T03:14:08.987Z,87.60
2023-10-21T03:15:08.983Z,87.60
2023-10-21T03:16:09.045Z,87.60
2023-10-21T03:17:08.956Z,87.51
2023-10-21T03:18:08.992Z,87.51
2023-10-21T03:19:08.926Z,87.60
2023-10-21T03:20:08.900Z,87.71
2023-10-21T03:21:08.908Z,87.60
2023-10-21T03:22:08.897Z,87.60
2023-10-21T03:23:08.849Z,87.81
2023-10-21T03:24:08.871Z,87.81
2023-10-21T03:25:08.842Z,87.81
2023-10-21T03:26:08.838Z,87.81
2023-10-21T03:27:08.821Z,87.81
2023-10-21T03:28:08.810Z,87.81
2023-10-21T03:29:09.470Z,87.91
2023-10-21T03:30:08.896Z,87.81
2023-10-21T03:31:08.772Z,87.81
2023-10-21T03:32:08.730Z,87.91
2023-10-21T03:33:08.766Z,88.11
2023-10-21T03:34:08.710Z,87.91
2023-10-21T03:35:08.727Z,88.42
2023-10-21T03:36:08.795Z,88.51
2023-10-21T03:37:09.432Z,88.51
2023-10-21T03:38:08.640Z,88.51
2023-10-21T03:39:08.666Z,88.62
2023-10-21T03:40:08.631Z,88.82
2023-10-21T03:41:08.625Z,88.51
2023-10-21T03:42:08.659Z,88.62
2023-10-21T03:43:08.561Z,88.76
2023-10-21T03:44:08.587Z,88.76
2023-10-21T03:45:08.589Z,88.76
2023-10-21T03:46:08.576Z,88.86
2023-10-21T03:47:08.552Z,88.86
2023-10-21T03:48:08.572Z,88.86
2023-10-21T03:49:08.470Z,88.56
2023-10-21T03:50:08.501Z,88.56
2023-10-21T03:51:08.526Z,88.66
2023-10-21T03:52:08.476Z,88.66
2023-10-21T03:53:08.438Z,88.56
2023-10-21T03:54:08.497Z,88.56
2023-10-21T03:55:08.396Z,88.56
2023-10-21T03:56:08.421Z,88.35
2023-10-21T03:57:08.423Z,88.46
2023-10-21T03:58:08.450Z,88.25
2023-10-21T03:59:08.344Z,88.35
2023-10-21T04:00:08.404Z,88.35
2023-10-21T04:01:08.414Z,88.35
2023-10-21T04:02:08.342Z,88.35
2023-10-21T04:03:08.461Z,88.15
2023-10-21T04:04:08.454Z,87.95
2023-10-21T04:05:08.273Z,87.24
2023-10-21T04:06:08.298Z,87.24
2023-10-21T04:07:08.303Z,86.94
2023-10-21T04:08:08.273Z,86.94
2023-10-21T04:09:08.250Z,86.94
2023-10-21T04:10:08.255Z,86.83
2023-10-21T04:11:08.203Z,86.73
2023-10-21T04:12:08.281Z,86.43
2023-10-21T04:13:08.200Z,86.33
2023-10-21T04:14:08.172Z,86.49
2023-10-21T04:15:08.183Z,86.29
2023-10-21T04:16:08.247Z,86.19
2023-10-21T04:17:08.152Z,86.39
2023-10-21T04:18:08.219Z,86.39
2023-10-21T04:19:08.089Z,86.39
2023-10-21T04:20:08.133Z,86.49
2023-10-21T04:21:08.132Z,86.39
2023-10-21T04:22:08.100Z,86.49
2023-10-21T04:23:08.055Z,86.39
2023-10-21T04:24:08.107Z,86.43
2023-10-21T04:25:08.038Z,86.22
2023-10-21T04:26:08.034Z,86.33
2023-10-21T04:27:08.045Z,86.43
2023-10-21T04:28:07.971Z,86.53
2023-10-21T04:29:08.000Z,86.59
2023-10-21T04:30:07.985Z,86.63
2023-10-21T04:31:08.030Z,86.63
2023-10-21T04:32:07.938Z,86.53
2023-10-21T04:33:07.996Z,86.39
2023-10-21T04:34:07.903Z,86.59
2023-10-21T04:35:07.946Z,86.49
2023-10-21T04:36:07.922Z,86.69
2023-10-21T04:37:07.914Z,86.59
2023-10-21T04:38:07.867Z,86.59
2023-10-21T04:39:07.879Z,86.69
2023-10-21T04:40:07.832Z,86.79
2023-10-21T04:41:07.847Z,86.79
2023-10-21T04:42:07.802Z,86.79
2023-10-21T04:43:07.807Z,86.79
2023-10-21T04:44:07.794Z,86.90
2023-10-21T04:45:07.808Z,87.10
2023-10-21T04:46:07.790Z,86.90
2023-10-21T04:47:07.762Z,86.69
2023-10-21T04:48:07.769Z,86.90
2023-10-21T04:49:07.742Z,87.10
2023-10-21T04:50:07.680Z,87.00
2023-10-21T04:51:07.749Z,87.20
2023-10-21T04:52:07.650Z,87.30
2023-10-21T04:53:07.688Z,87.30
2023-10-21T04:54:07.686Z,87.51
2023-10-21T04:55:07.656Z,87.51
2023-10-21T04:56:07.608Z,87.60
2023-10-21T04:57:07.663Z,87.65
2023-10-21T04:58:07.580Z,87.60
2023-10-21T04:59:07.639Z,87.60
2023-10-21T05:00:07.652Z,87.51
2023-10-21T05:01:07.610Z,87.60
2023-10-21T05:02:07.537Z,87.60
2023-10-21T05:03:07.659Z,87.71
2023-10-21T05:04:08.567Z,87.81
2023-10-21T05:05:07.577Z,87.91
2023-10-21T05:06:07.527Z,87.91
2023-10-21T05:07:07.480Z,87.95
2023-10-21T05:08:07.439Z,88.05
2023-10-21T05:09:07.500Z,88.25
2023-10-21T05:10:07.451Z,88.35
2023-10-21T05:11:07.473Z,88.25
2023-10-21T05:12:07.416Z,88.15
2023-10-21T05:13:07.426Z,88.35
2023-10-21T05:14:07.391Z,88.35
2023-10-21T05:15:07.423Z,88.46
2023-10-21T05:16:07.378Z,88.56
2023-10-21T05:17:07.432Z,88.66
2023-10-21T05:18:07.490Z,88.66
2023-10-21T05:19:07.327Z,88.76
2023-10-21T05:20:07.325Z,88.76
2023-10-21T05:21:07.333Z,88.86
2023-10-21T05:22:07.255Z,88.86
2023-10-21T05:23:07.274Z,88.96
2023-10-21T05:24:07.253Z,89.06
2023-10-21T05:25:07.300Z,89.06
2023-10-21T05:26:07.229Z,88.96
2023-10-21T05:27:07.277Z,88.96
2023-10-21T05:28:07.178Z,88.96
2023-10-21T05:29:07.218Z,88.96
2023-10-21T05:30:07.200Z,88.96
2023-10-21T05:31:07.213Z,88.96
2023-10-21T05:32:07.135Z,88.66
2023-10-21T05:33:09.910Z,88.76
2023-10-21T05:34:07.169Z,88.86
2023-10-21T05:35:07.139Z,88.76
2023-10-21T05:36:07.175Z,88.76
2023-10-21T05:37:07.082Z,88.76
2023-10-21T05:38:07.047Z,88.96
2023-10-21T05:39:07.137Z,88.96
2023-10-21T05:40:07.014Z,88.86
2023-10-21T05:41:07.045Z,88.86
2023-10-21T05:42:07.059Z,88.86
2023-10-21T05:43:07.024Z,88.96
2023-10-21T05:44:06.985Z,89.06
2023-10-21T05:45:07.005Z,89.26
2023-10-21T05:46:06.968Z,89.37
2023-10-21T05:47:07.034Z,89.57
2023-10-21T05:48:07.026Z,89.77
2023-10-21T05:49:06.974Z,89.87
2023-10-21T05:50:06.914Z,89.67
2023-10-21T05:51:06.952Z,89.67
2023-10-21T05:52:06.890Z,89.87
2023-10-21T05:53:06.908Z,89.87
2023-10-21T05:54:06.883Z,89.87
2023-10-21T05:55:06.880Z,89.87
2023-10-21T05:56:06.838Z,89.98
2023-10-21T05:57:06.889Z,90.08
2023-10-21T05:58:06.800Z,90.08
2023-10-21T05:59:06.864Z,90.08
2023-10-21T06:00:06.792Z,90.18
2023-10-21T06:01:06.868Z,90.18
2023-10-21T06:02:06.758Z,90.28
2023-10-21T06:03:07.008Z,90.28
2023-10-21T06:04:06.797Z,90.28
2023-10-21T06:05:06.746Z,90.18
2023-10-21T06:06:06.713Z,90.18
2023-10-21T06:07:06.712Z,90.28
2023-10-21T06:08:06.663Z,90.18
2023-10-21T06:09:06.715Z,90.18
2023-10-21T06:10:06.680Z,90.08
2023-10-21T06:11:06.652Z,89.98
2023-10-21T06:12:06.643Z,89.98
2023-10-21T06:13:06.610Z,89.98
2023-10-21T06:14:06.600Z,90.02
2023-10-21T06:15:06.637Z,90.12
2023-10-21T06:16:06.553Z,90.12
2023-10-21T06:17:06.578Z,90.12
2023-10-21T06:18:06.625Z,89.92
2023-10-21T06:19:06.548Z,90.02
2023-10-21T06:20:06.587Z,90.02
2023-10-21T06:21:06.542Z,90.12
2023-10-21T06:22:06.507Z,90.02
2023-10-21T06:23:06.491Z,90.02
2023-10-21T06:24:06.495Z,90.02
2023-10-21T06:25:06.467Z,90.12
2023-10-21T06:26:06.472Z,90.02
2023-10-21T06:27:06.450Z,89.92
2023-10-21T06:28:06.418Z,89.81
2023-10-21T06:29:06.421Z,89.81
2023-10-21T06:30:06.406Z,89.81
2023-10-21T06:31:06.435Z,89.77
2023-10-21T06:32:06.346Z,89.77
2023-10-21T06:33:06.463Z,89.77
2023-10-21T06:34:06.328Z,89.67
2023-10-21T06:35:06.318Z,89.67
2023-10-21T06:36:06.369Z,89.57
2023-10-21T06:37:06.306Z,89.37
2023-10-21T06:38:06.283Z,89.26
2023-10-21T06:39:06.310Z,89.26
2023-10-21T06:40:06.238Z,89.06
2023-10-21T06:41:14.157Z,89.06
2023-10-21T06:42:06.247Z,88.96
2023-10-21T06:43:06.266Z,88.96
2023-10-21T06:44:06.207Z,88.86
2023-10-21T06:45:06.240Z,88.76
2023-10-21T06:46:06.181Z,88.56
2023-10-21T06:47:06.158Z,88.46
2023-10-21T06:48:06.209Z,88.66
2023-10-21T06:49:06.139Z,88.46
2023-10-21T06:50:06.125Z,88.42
2023-10-21T06:51:06.179Z,88.51
2023-10-21T06:52:06.065Z,88.42
2023-10-21T06:53:06.103Z,88.31
2023-10-21T06:54:06.092Z,88.31
2023-10-21T06:55:06.061Z,88.42
2023-10-21T06:56:06.042Z,88.31
2023-10-21T06:57:06.058Z,88.11
2023-10-21T06:58:06.000Z,88.11
2023-10-21T06:59:06.087Z,88.21
2023-10-21T07:00:05.992Z,88.21
2023-10-21T07:01:05.992Z,88.01
2023-10-21T07:02:05.993Z,87.81
2023-10-21T07:03:06.075Z,87.81
2023-10-21T07:04:05.935Z,87.91
2023-10-21T07:05:06.490Z,87.71
2023-10-21T07:06:05.957Z,87.81
2023-10-21T07:07:05.895Z,87.91
2023-10-21T07:08:05.861Z,88.01
2023-10-21T07:09:05.921Z,88.11
2023-10-21T07:10:05.873Z,88.01
2023-10-21T07:11:05.856Z,88.11
2023-10-21T07:12:05.902Z,88.11
2023-10-21T07:13:05.864Z,88.31
2023-10-21T07:14:05.789Z,88.21
2023-10-21T07:15:05.807Z,88.21
2023-10-21T07:16:05.810Z,88.31
2023-10-21T07:17:06.747Z,88.51
2023-10-21T07:18:05.833Z,88.62
2023-10-21T07:19:05.764Z,88.51
2023-10-21T07:20:05.745Z,88.62
2023-10-21T07:21:05.828Z,88.62
2023-10-21T07:22:05.705Z,88.31
2023-10-21T07:23:05.701Z,88.42
2023-10-21T07:24:05.648Z,88.51
2023-10-21T07:25:05.688Z,88.42
2023-10-21T07:26:05.635Z,88.31
2023-10-21T07:27:05.671Z,88.31
2023-10-21T07:28:05.607Z,88.31
2023-10-21T07:29:06.356Z,88.42
2023-10-21T07:30:05.652Z,88.51
2023-10-21T07:31:05.613Z,88.51
2023-10-21T07:32:05.542Z,88.72
2023-10-21T07:33:05.604Z,88.72
2023-10-21T07:34:05.519Z,88.82
2023-10-21T07:35:05.540Z,88.62
2023-10-21T07:36:05.523Z,88.31
2023-10-21T07:37:05.542Z,88.42
2023-10-21T07:38:05.468Z,87.91
2023-10-21T07:39:05.514Z,88.01
2023-10-21T07:40:05.455Z,88.01
2023-10-21T07:41:06.420Z,88.21
2023-10-21T07:42:05.439Z,88.51
2023-10-21T07:43:05.425Z,88.42
2023-10-21T07:44:05.428Z,88.31
2023-10-21T07:45:05.509Z,87.91
2023-10-21T07:46:05.460Z,87.71
2023-10-21T07:47:05.434Z,87.81
2023-10-21T07:48:05.450Z,87.60
2023-10-21T07:49:05.361Z,87.51
2023-10-21T07:50:05.383Z,87.91
2023-10-21T07:51:05.431Z,87.71
2023-10-21T07:52:05.328Z,87.71
2023-10-21T07:53:05.330Z,87.81
2023-10-21T07:54:05.283Z,87.71
2023-10-21T07:55:05.282Z,87.91
2023-10-21T07:56:05.243Z,87.51
2023-10-21T07:57:05.364Z,87.30
2023-10-21T07:58:05.223Z,87.10
2023-10-21T07:59:05.322Z,87.20
2023-10-21T08:00:05.330Z,87.10
2023-10-21T08:01:05.227Z,86.59
2023-10-21T08:02:05.222Z,85.99
2023-10-21T08:03:05.240Z,86.08
2023-10-21T08:04:05.232Z,85.68
2023-10-21T08:05:05.168Z,84.87
2023-10-21T08:06:05.128Z,84.77
2023-10-21T08:07:06.928Z,84.67
2023-10-21T08:08:05.215Z,84.83
2023-10-21T08:09:05.956Z,84.83
2023-10-21T08:10:05.051Z,84.63
2023-10-21T08:11:05.112Z,84.12
2023-10-21T08:12:05.141Z,83.82
2023-10-21T08:13:05.048Z,83.21
2023-10-21T08:14:05.021Z,83.41
2023-10-21T08:15:05.090Z,83.41
2023-10-21T08:16:04.996Z,83.01
2023-10-21T08:17:04.996Z,83.37
2023-10-21T08:18:05.020Z,82.16
2023-10-21T08:19:05.057Z,82.16
2023-10-21T08:20:04.933Z,82.46
2023-10-21T08:21:06.409Z,82.02
2023-10-21T08:22:04.916Z,80.60
2023-10-21T08:23:04.907Z,79.39
2023-10-21T08:24:04.925Z,79.69
2023-10-21T08:25:04.887Z,78.68
2023-10-21T08:26:04.891Z,79.05
2023-10-21T08:27:04.928Z,78.75
2023-10-21T08:28:04.829Z,78.85
2023-10-21T08:29:04.825Z,78.75
2023-10-21T08:30:06.112Z,78.44
2023-10-21T08:31:04.892Z,77.73
2023-10-21T08:32:04.774Z,77.09
2023-10-21T08:33:04.836Z,77.29
2023-10-21T08:34:04.788Z,76.99
2023-10-21T08:35:04.756Z,75.88
2023-10-21T08:36:04.736Z,75.68
2023-10-21T08:37:04.727Z,74.43
2023-10-21T08:38:04.725Z,74.02
2023-10-21T08:39:04.727Z,74.33
2023-10-21T08:40:04.691Z,74.02
2023-10-21T08:41:04.667Z,74.02
2023-10-21T08:42:08.553Z,73.93
2023-10-21T08:43:04.636Z,74.09
2023-10-21T08:44:04.626Z,73.96
2023-10-21T08:45:05.488Z,73.85
2023-10-21T08:46:04.640Z,73.72
2023-10-21T08:47:04.598Z,72.11
2023-10-21T08:48:04.754Z,71.70
2023-10-21T08:49:04.564Z,71.77
2023-10-21T08:50:04.582Z,71.06
2023-10-21T08:51:04.547Z,70.42
2023-10-21T08:52:04.521Z,71.03
2023-10-21T08:53:04.488Z,70.53
2023-10-21T08:54:04.612Z,71.33
2023-10-21T08:55:04.519Z,71.10
2023-10-21T08:56:04.478Z,71.20
2023-10-21T08:57:04.494Z,70.39
2023-10-21T08:58:04.546Z,70.39
2023-10-21T08:59:04.413Z,69.49
2023-10-21T09:00:04.419Z,70.09
2023-10-21T09:01:04.472Z,70.73
2023-10-21T09:02:04.442Z,70.42
2023-10-21T09:03:04.529Z,70.73
2023-10-21T09:04:04.453Z,70.32
2023-10-21T09:05:04.345Z,70.53
2023-10-21T09:06:04.382Z,71.03
2023-10-21T09:07:04.331Z,70.93
2023-10-21T09:08:04.351Z,70.32
2023-10-21T09:09:04.288Z,70.12
2023-10-21T09:10:04.292Z,70.86
2023-10-21T09:11:04.252Z,71.67
2023-10-21T09:12:04.314Z,70.93
2023-10-21T09:13:04.233Z,70.73
2023-10-21T09:14:04.256Z,70.42
2023-10-21T09:15:04.230Z,70.53
2023-10-21T09:16:04.321Z,69.89
2023-10-21T09:17:04.270Z,70.29
2023-10-21T09:18:04.240Z,70.16
2023-10-21T09:19:04.163Z,69.96
2023-10-21T09:20:04.163Z,69.32
2023-10-21T09:21:04.163Z,68.82
2023-10-21T09:22:04.134Z,69.32
2023-10-21T09:23:04.114Z,68.51
2023-10-21T09:24:04.190Z,69.22
2023-10-21T09:25:04.119Z,69.02
2023-10-21T09:26:04.124Z,67.71
2023-10-21T09:27:04.101Z,68.62
2023-10-21T09:28:04.081Z,68.21
2023-10-21T09:29:04.048Z,67.51
2023-10-21T09:30:04.063Z,68.15
2023-10-21T09:31:04.013Z,68.11
2023-10-21T09:32:04.069Z,67.84
2023-10-21T09:33:04.183Z,67.84
2023-10-21T09:34:03.992Z,67.57
2023-10-21T09:35:03.961Z,68.18
2023-10-21T09:36:18.941Z,68.68
2023-10-21T09:37:03.963Z,68.78
2023-10-21T09:38:03.930Z,68.98
2023-10-21T09:39:03.905Z,67.97
2023-10-21T09:40:03.915Z,67.91
2023-10-21T09:41:03.900Z,67.71
2023-10-21T09:42:03.975Z,67.88
2023-10-21T09:43:03.859Z,67.07
2023-10-21T09:44:03.869Z,67.94
2023-10-21T09:45:03.859Z,67.01
2023-10-21T09:46:03.899Z,67.11
2023-10-21T09:47:03.816Z,66.38
2023-10-21T09:48:03.870Z,64.94
2023-10-21T09:49:03.809Z,65.84
2023-10-21T09:50:03.824Z,66.05
2023-10-21T09:51:03.823Z,65.94
2023-10-21T09:52:03.758Z,65.21
2023-10-21T09:53:03.738Z,66.01
2023-10-21T09:54:03.761Z,63.98
2023-10-21T09:55:03.740Z,63.28
2023-10-21T09:56:03.720Z,63.60
2023-10-21T09:57:03.763Z,64.91
2023-10-21T09:58:03.784Z,63.81
2023-10-21T09:59:03.659Z,64.40
2023-10-21T10:00:03.716Z,64.43
2023-10-21T10:01:03.706Z,64.97
2023-10-21T10:02:03.638Z,65.07
2023-10-21T10:03:03.783Z,65.17
2023-10-21T10:04:03.695Z,65.00
2023-10-21T10:05:03.577Z,65.60
2023-10-21T10:06:03.609Z,65.70
2023-10-21T10:07:05.849Z,66.34
2023-10-21T10:08:03.550Z,66.64
2023-10-21T10:09:03.555Z,66.84
2023-10-21T10:10:03.564Z,67.27
2023-10-21T10:11:03.515Z,67.81
2023-10-21T10:12:03.615Z,68.24
2023-10-21T10:13:03.481Z,68.58
2023-10-21T10:14:03.527Z,69.52
2023-10-21T10:15:03.461Z,69.01
2023-10-21T10:16:03.484Z,68.44
2023-10-21T10:17:03.420Z,69.48
2023-10-21T10:18:03.520Z,70.19
2023-10-21T10:19:03.380Z,70.59
2023-10-21T10:20:03.451Z,71.40
2023-10-21T10:21:03.396Z,70.93
2023-10-21T10:22:03.366Z,71.03
2023-10-21T10:23:03.332Z,71.53
2023-10-21T10:24:03.408Z,71.94
2023-10-21T10:25:03.308Z,71.84
2023-10-21T10:26:03.345Z,71.80
2023-10-21T10:27:03.328Z,71.30
2023-10-21T10:28:03.295Z,70.69
2023-10-21T10:29:03.262Z,68.98
2023-10-21T10:30:03.334Z,68.88
2023-10-21T10:31:03.240Z,67.36
2023-10-21T10:32:03.283Z,67.67
2023-10-21T10:33:03.277Z,67.84
2023-10-21T10:34:03.260Z,68.14
2023-10-21T10:35:03.181Z,68.14
2023-10-21T10:36:03.264Z,68.21
2023-10-21T10:37:03.185Z,68.01
2023-10-21T10:38:03.182Z,68.11
2023-10-21T10:39:03.170Z,68.38
2023-10-21T10:40:03.155Z,68.18
2023-10-21T10:41:03.154Z,67.17
2023-10-21T10:42:03.157Z,66.43
2023-10-21T10:43:03.065Z,67.64
2023-10-21T10:44:03.133Z,67.77
2023-10-21T10:45:03.116Z,67.77
2023-10-21T10:46:03.199Z,66.87
2023-10-21T10:47:03.033Z,67.57
2023-10-21T10:48:03.110Z,67.77
2023-10-21T10:49:03.001Z,66.87
2023-10-21T10:50:03.043Z,67.27
2023-10-21T10:51:03.022Z,67.07
2023-10-21T10:52:02.993Z,67.68
2023-10-21T10:53:02.947Z,68.38
2023-10-21T10:54:03.031Z,68.98
2023-10-21T10:55:02.931Z,68.98
2023-10-21T10:56:02.937Z,68.38
2023-10-21T10:57:03.018Z,68.38
2023-10-21T10:58:02.901Z,68.18
2023-10-21T10:59:02.863Z,68.68
2023-10-21T11:00:02.940Z,68.58
2023-10-21T11:01:02.845Z,68.11
2023-10-21T11:02:02.874Z,67.80
2023-10-21T11:03:02.931Z,67.30
2023-10-21T11:04:03.103Z,67.54
2023-10-21T11:05:02.795Z,67.94
2023-10-21T11:06:02.824Z,68.54
2023-10-21T11:07:02.762Z,68.54
2023-10-21T11:08:02.786Z,68.98
2023-10-21T11:09:02.811Z,69.08
2023-10-21T11:10:02.745Z,69.89
2023-10-21T11:11:02.723Z,69.48
2023-10-21T11:12:10.525Z,69.89
2023-10-21T11:13:02.727Z,69.38
2023-10-21T11:14:02.724Z,69.59
2023-10-21T11:15:02.658Z,69.99
2023-10-21T11:16:02.681Z,70.49
2023-10-21T11:17:02.620Z,70.49
2023-10-21T11:18:02.784Z,69.38
2023-10-21T11:19:02.612Z,70.39
2023-10-21T11:20:04.140Z,70.29
2023-10-21T11:21:02.619Z,69.62
2023-10-21T11:22:02.607Z,68.91
2023-10-21T11:23:02.552Z,69.82
2023-10-21T11:24:02.741Z,69.82
2023-10-21T11:25:02.563Z,69.72
2023-10-21T11:26:02.541Z,70.32
2023-10-21T11:27:02.535Z,69.89
2023-10-21T11:28:02.532Z,69.68
2023-10-21T11:29:02.480Z,69.59
2023-10-21T11:30:02.530Z,70.09
2023-10-21T11:31:02.573Z,69.59
2023-10-21T11:32:02.554Z,69.68
2023-10-21T11:33:02.441Z,69.15
2023-10-21T11:34:02.516Z,69.35
2023-10-21T11:35:02.503Z,69.05
2023-10-21T11:36:02.503Z,69.25
2023-10-21T11:37:02.363Z,68.54
2023-10-21T11:38:02.362Z,69.05
2023-10-21T11:39:02.335Z,68.74
2023-10-21T11:40:02.383Z,68.85
2023-10-21T11:41:02.360Z,68.65
2023-10-21T11:42:02.392Z,68.54
2023-10-21T11:43:02.283Z,68.34
2023-10-21T11:44:02.294Z,68.95
2023-10-21T11:45:02.359Z,67.84
2023-10-21T11:46:02.296Z,66.33
2023-10-21T11:47:02.286Z,67.03
2023-10-21T11:48:02.349Z,67.33
2023-10-21T11:49:02.244Z,67.13
2023-10-21T11:50:02.214Z,67.54
2023-10-21T11:51:02.244Z,67.84
2023-10-21T11:52:02.211Z,67.97
2023-10-21T11:53:02.166Z,68.07
2023-10-21T11:54:02.679Z,67.47
2023-10-21T11:55:02.156Z,67.47
2023-10-21T11:56:02.117Z,68.27
2023-10-21T11:57:02.163Z,67.97
2023-10-21T11:58:02.134Z,67.47
2023-10-21T11:59:02.088Z,67.87
2023-10-21T12:00:02.126Z,67.97
2023-10-21T12:01:02.118Z,67.47
2023-10-21T12:02:02.064Z,67.97
2023-10-21T12:03:02.171Z,67.77
2023-10-21T12:04:02.164Z,68.48
2023-10-21T12:05:02.017Z,68.68
2023-10-21T12:06:03.981Z,68.68
2023-10-21T12:07:02.002Z,68.77
2023-10-21T12:08:01.978Z,68.98
2023-10-21T12:09:01.976Z,69.11
2023-10-21T12:10:01.986Z,68.81
2023-10-21T12:11:01.935Z,68.71
2023-10-21T12:12:02.007Z,68.81
2023-10-21T12:13:01.907Z,68.41
2023-10-21T12:14:01.881Z,68.51
2023-10-21T12:15:01.903Z,68.81
2023-10-21T12:16:01.944Z,67.50
2023-10-21T12:17:13.703Z,67.60
2023-10-21T12:18:04.773Z,67.19
2023-10-21T12:19:01.832Z,67.90
2023-10-21T12:20:01.847Z,66.59
2023-10-21T12:21:01.915Z,66.19
2023-10-21T12:22:01.836Z,65.38
2023-10-21T12:23:01.781Z,65.28
2023-10-21T12:24:01.859Z,64.67
2023-10-21T12:25:01.730Z,64.07
2023-10-21T12:26:01.749Z,64.47
2023-10-21T12:27:01.755Z,64.78
2023-10-21T12:28:01.761Z,64.37
2023-10-21T12:29:01.681Z,63.87
2023-10-21T12:30:01.745Z,63.56
2023-10-21T12:31:01.708Z,63.96
2023-10-21T12:32:01.660Z,63.64
2023-10-21T12:33:01.678Z,64.44
2023-10-21T12:34:01.626Z,63.53
2023-10-21T12:35:01.598Z,63.90
2023-10-21T12:36:01.661Z,63.81
2023-10-21T12:37:01.600Z,64.48
2023-10-21T12:38:01.578Z,63.47
2023-10-21T12:39:01.595Z,63.37
2023-10-21T12:40:01.590Z,62.46
2023-10-21T12:41:01.569Z,62.34
2023-10-21T12:42:01.572Z,62.24
2023-10-21T12:43:01.503Z,62.24
2023-10-21T12:44:01.531Z,61.53
2023-10-21T12:45:01.512Z,62.84
2023-10-21T12:46:01.487Z,63.14
2023-10-21T12:47:03.260Z,62.94
2023-10-21T12:48:01.560Z,62.64
2023-10-21T12:49:10.594Z,63.14
2023-10-21T12:50:01.427Z,62.44
2023-10-21T12:51:01.451Z,62.74
2023-10-21T12:52:01.425Z,61.83